Time;durP1;ratioP1;P1;durP2;ratioP2;P2;SDS_P1;SDS_P2;PMS_P1;PMS_P2;Temp;Humidity;BMP_temperature;BMP_pressure;BME280_temperature;BME280_humidity;BME280_pressure;Samples;Min_cycle;Max_cycle;Signal;HPM_P1;HPM_P2
2023/09/16 00:02:21;;;;;;;33.08;21.88;;;;;;;14.37;100.00;96536.22;5020085;28;20497;-67
2023/09/16 00:04:46;;;;;;;31.30;21.63;;;;;;;14.28;100.00;96534.66;5023977;28;20053;-67
2023/09/16 00:07:12;;;;;;;31.40;22.92;;;;;;;14.19;100.00;96536.22;5025040;28;20427;-67
2023/09/16 00:09:38;;;;;;;31.25;21.55;;;;;;;14.11;100.00;96530.72;5031997;28;20045;-67
2023/09/16 00:12:04;;;;;;;37.42;25.02;;;;;;;14.06;100.00;96535.84;5027462;28;20045;-67
2023/09/16 00:14:29;;;;;;;35.70;23.98;;;;;;;14.14;100.00;96540.94;5023883;28;20041;-67
2023/09/16 00:16:58;;;;;;;37.33;24.48;;;;;;;13.98;100.00;96529.53;5023715;28;20041;-67
2023/09/16 00:19:23;;;;;;;34.22;23.95;;;;;;;13.87;100.00;96535.06;5024916;28;20045;-67
2023/09/16 00:21:49;;;;;;;41.15;25.08;;;;;;;13.73;100.00;96535.03;5025296;28;20100;-67
2023/09/16 00:24:14;;;;;;;41.47;25.38;;;;;;;13.60;100.00;96539.34;5018096;28;20053;-67
2023/09/16 00:26:40;;;;;;;41.03;26.58;;;;;;;13.55;100.00;96537.75;5030168;28;20041;-67
2023/09/16 00:29:06;;;;;;;40.75;25.75;;;;;;;13.57;100.00;96538.94;5026395;28;20052;-67
2023/09/16 00:31:33;;;;;;;36.58;23.67;;;;;;;13.67;100.00;96540.13;5023141;28;20041;-67
2023/09/16 00:33:59;;;;;;;38.55;25.52;;;;;;;13.67;100.00;96544.88;5023689;28;20045;-68
2023/09/16 00:36:24;;;;;;;38.20;25.38;;;;;;;13.59;100.00;96535.78;5019002;28;20111;-66
2023/09/16 00:38:49;;;;;;;42.45;26.48;;;;;;;13.55;100.00;96535.78;5027547;28;20044;-66
2023/09/16 00:41:15;;;;;;;39.33;25.00;;;;;;;13.51;100.00;96537.75;5022096;28;20116;-66
2023/09/16 00:43:40;;;;;;;42.80;27.15;;;;;;;13.37;100.00;96543.22;5023036;28;20037;-67
2023/09/16 00:46:06;;;;;;;44.97;26.70;;;;;;;13.24;100.00;96541.97;5019136;28;20045;-66
2023/09/16 00:48:32;;;;;;;36.65;23.10;;;;;;;13.15;100.00;96542.34;5023646;28;20049;-67
2023/09/16 00:50:58;;;;;;;41.15;24.73;;;;;;;13.10;100.00;96545.44;5022092;28;20038;-67
2023/09/16 00:53:26;;;;;;;45.60;27.50;;;;;;;13.12;100.00;96543.88;5028738;28;20328;-67
2023/09/16 00:55:51;;;;;;;50.70;30.25;;;;;;;13.09;100.00;96546.63;5024868;28;20033;-67
2023/09/16 00:58:17;;;;;;;52.83;30.33;;;;;;;13.11;100.00;96553.31;5023796;28;20187;-67
2023/09/16 01:00:45;;;;;;;49.88;29.27;;;;;;;13.17;100.00;96549.00;5029740;28;20049;-67
2023/09/16 01:03:11;;;;;;;49.50;29.55;;;;;;;13.15;100.00;96550.59;5021726;28;20037;-68
2023/09/16 01:05:37;;;;;;;51.25;28.85;;;;;;;13.17;100.00;96553.72;5026564;28;20073;-67
2023/09/16 01:08:03;;;;;;;47.67;27.65;;;;;;;13.14;100.00;96552.56;5025144;28;20044;-68
2023/09/16 01:10:28;;;;;;;46.25;28.27;;;;;;;13.21;100.00;96538.03;5021551;28;20049;-67
2023/09/16 01:12:55;;;;;;;43.55;26.10;;;;;;;13.28;100.00;96546.28;5040068;28;20048;-67
2023/09/16 01:15:22;;;;;;;41.10;25.05;;;;;;;13.38;100.00;96540.06;5021890;28;20045;-67
2023/09/16 01:18:06;;;;;;;39.95;25.15;;;;;;;13.62;100.00;96545.25;5043349;28;20072;-67
2023/09/16 01:20:33;;;;;;;36.72;24.02;;;;;;;13.80;100.00;96554.31;5020880;28;20054;-66
2023/09/16 01:22:58;;;;;;;38.05;23.70;;;;;;;13.90;100.00;96556.28;5030730;28;20061;-66
2023/09/16 01:25:27;;;;;;;35.00;21.45;;;;;;;14.07;100.00;96557.47;5027041;28;20053;-66
2023/09/16 01:27:54;;;;;;;34.92;23.67;;;;;;;14.13;100.00;96564.19;5018413;28;20496;-67
2023/09/16 01:30:19;;;;;;;35.75;24.73;;;;;;;14.00;100.00;96564.97;5011089;28;20060;-67
2023/09/16 01:32:52;;;;;;;37.10;23.75;;;;;;;14.06;100.00;96563.38;5005785;28;20050;-67
2023/09/16 01:35:21;;;;;;;43.53;24.85;;;;;;;14.23;100.00;96573.63;5009810;28;20156;-67
2023/09/16 01:37:49;;;;;;;37.30;22.27;;;;;;;14.33;100.00;96570.09;5019020;28;20095;-67
2023/09/16 01:40:16;;;;;;;33.85;21.02;;;;;;;14.41;100.00;96561.81;5005149;28;20315;-68
2023/09/16 01:42:42;;;;;;;30.38;21.00;;;;;;;14.57;100.00;96564.94;5021891;28;20145;-68
2023/09/16 01:45:10;;;;;;;31.95;20.08;;;;;;;14.69;100.00;96561.00;5009346;28;20630;-67
2023/09/16 01:47:36;;;;;;;34.20;21.08;;;;;;;14.79;100.00;96553.91;5025359;28;20404;-67
2023/09/16 01:50:02;;;;;;;33.08;21.75;;;;;;;14.65;100.00;96555.47;5009634;28;20148;-67
2023/09/16 01:52:27;;;;;;;29.77;20.55;;;;;;;14.48;100.00;96559.81;5017592;28;20042;-67
2023/09/16 01:54:53;;;;;;;38.22;23.27;;;;;;;14.20;100.00;96557.88;5011894;28;20064;-67
2023/09/16 01:57:18;;;;;;;38.45;24.15;;;;;;;14.17;100.00;96563.38;5001593;28;20128;-67
2023/09/16 01:59:44;;;;;;;38.10;23.58;;;;;;;14.31;100.00;96560.63;5025121;28;20053;-68
2023/09/16 02:02:11;;;;;;;34.75;21.92;;;;;;;14.42;100.00;96563.38;5010715;28;20123;-67
2023/09/16 02:04:38;;;;;;;31.65;21.33;;;;;;;14.50;100.00;96564.94;5012978;28;20045;-67
2023/09/16 02:07:04;;;;;;;31.02;20.88;;;;;;;14.59;100.00;96570.88;5015619;28;20131;-68
2023/09/16 02:09:29;;;;;;;35.85;23.08;;;;;;;14.64;100.00;96564.94;5012213;28;20076;-67
2023/09/16 02:11:55;;;;;;;34.25;21.17;;;;;;;14.59;100.00;96570.88;5023309;28;20042;-67
2023/09/16 02:14:20;;;;;;;32.10;21.38;;;;;;;14.67;100.00;96568.88;5031099;28;20037;-67
2023/09/16 02:16:46;;;;;;;35.30;23.27;;;;;;;14.67;100.00;96560.59;5011730;28;20046;-67
2023/09/16 02:19:11;;;;;;;34.78;21.80;;;;;;;14.74;100.00;96565.31;5003292;28;20057;-68
2023/09/16 02:21:37;;;;;;;34.10;22.10;;;;;;;14.78;100.00;96563.34;5011539;28;20045;-66
2023/09/16 02:24:03;;;;;;;34.08;21.45;;;;;;;14.78;100.00;96560.59;5012344;28;20069;-67
2023/09/16 02:26:29;;;;;;;32.35;21.20;;;;;;;14.79;100.00;96568.47;5011226;28;20081;-66
2023/09/16 02:28:54;;;;;;;35.10;20.77;;;;;;;14.88;100.00;96570.81;5018367;28;20475;-66
2023/09/16 02:31:19;;;;;;;31.27;21.20;;;;;;;14.97;100.00;96567.63;5001725;28;20104;-67
2023/09/16 02:33:45;;;;;;;28.75;19.20;;;;;;;14.99;100.00;96568.00;5009643;28;20516;-67
2023/09/16 02:36:10;;;;;;;30.67;20.92;;;;;;;15.01;100.00;96571.94;5007180;28;20071;-68
2023/09/16 02:38:36;;;;;;;31.23;20.90;;;;;;;15.07;100.00;96575.06;5010705;28;20497;-66
2023/09/16 02:41:04;;;;;;;31.38;19.02;;;;;;;15.06;100.00;96574.28;5016286;28;20069;-67
2023/09/16 02:43:31;;;;;;;29.13;20.35;;;;;;;15.05;100.00;96567.22;5025234;28;20050;-66
2023/09/16 02:45:56;;;;;;;35.13;21.63;;;;;;;14.99;100.00;96565.25;5033991;28;20037;-66
2023/09/16 02:48:22;;;;;;;31.13;20.70;;;;;;;14.98;100.00;96560.91;5020631;28;20045;-66
2023/09/16 02:50:48;;;;;;;30.77;21.00;;;;;;;15.00;100.00;96558.53;5023135;28;20045;-66
2023/09/16 02:53:13;;;;;;;32.95;21.23;;;;;;;15.07;100.00;96562.09;5019151;28;20053;-66
2023/09/16 02:55:39;;;;;;;33.30;21.55;;;;;;;15.18;100.00;96570.31;5023402;28;20530;-67
2023/09/16 02:58:05;;;;;;;34.88;21.95;;;;;;;15.20;100.00;96567.94;5035953;28;20049;-66
2023/09/16 03:00:32;;;;;;;33.90;22.00;;;;;;;15.20;100.00;96572.69;5026150;28;20472;-66
2023/09/16 03:02:57;;;;;;;33.22;22.85;;;;;;;15.00;100.00;96561.31;5025720;28;20053;-67
2023/09/16 03:05:23;;;;;;;31.02;20.77;;;;;;;15.00;100.00;96566.81;5020135;28;20057;-66
2023/09/16 03:07:51;;;;;;;32.35;20.48;;;;;;;14.96;100.00;96550.28;5024911;28;20693;-65
2023/09/16 03:10:17;;;;;;;35.60;20.05;;;;;;;15.03;100.00;96561.28;5023075;28;20045;-68
2023/09/16 03:12:43;;;;;;;31.55;19.20;;;;;;;15.20;100.00;96556.13;5025771;28;20045;-67
2023/09/16 03:15:10;;;;;;;26.98;19.10;;;;;;;15.17;100.00;96549.41;5030367;28;20299;-68
2023/09/16 03:17:35;;;;;;;27.67;19.38;;;;;;;15.23;100.00;96544.28;5022459;28;20051;-67
2023/09/16 03:20:01;;;;;;;29.23;19.10;;;;;;;15.15;100.00;96540.75;5031017;28;20844;-68
2023/09/16 03:22:26;;;;;;;28.30;18.35;;;;;;;15.14;100.00;96539.19;5023378;28;20500;-68
2023/09/16 03:24:52;;;;;;;28.77;18.40;;;;;;;15.12;100.00;96532.50;5034556;28;20451;-67
2023/09/16 03:27:17;;;;;;;25.33;18.63;;;;;;;15.13;100.00;96534.88;5035302;28;20053;-67
2023/09/16 03:29:43;;;;;;;30.40;18.45;;;;;;;15.17;100.00;96527.34;5042080;28;20037;-67
2023/09/16 03:32:08;;;;;;;25.23;17.90;;;;;;;15.23;100.00;96525.75;5037914;28;20056;-65
2023/09/16 03:34:33;;;;;;;29.35;19.02;;;;;;;15.30;100.00;96519.41;5027096;28;20049;-68
2023/09/16 03:36:59;;;;;;;27.02;17.27;;;;;;;15.34;100.00;96522.16;5024396;28;20041;-68
2023/09/16 03:39:24;;;;;;;28.58;17.90;;;;;;;15.38;100.00;96526.47;5017415;28;20074;-68
2023/09/16 03:41:50;;;;;;;29.58;17.77;;;;;;;15.45;100.00;96528.41;5021144;28;20539;-68
2023/09/16 03:44:15;;;;;;;24.23;16.52;;;;;;;15.45;100.00;96529.19;5018705;28;20702;-68
2023/09/16 03:46:41;;;;;;;25.48;17.27;;;;;;;15.50;100.00;96527.97;5024875;28;20048;-68
2023/09/16 03:49:07;;;;;;;29.92;18.08;;;;;;;15.56;100.00;96525.59;5016793;28;20123;-68
2023/09/16 03:51:34;;;;;;;27.63;17.05;;;;;;;15.52;100.00;96525.63;5022062;28;20400;-67
2023/09/16 03:54:00;;;;;;;32.08;18.77;;;;;;;15.28;100.00;96530.06;5021738;28;20041;-67
2023/09/16 03:56:26;;;;;;;31.08;20.15;;;;;;;15.09;100.00;96525.81;5017477;28;20083;-67
2023/09/16 03:58:51;;;;;;;26.33;17.65;;;;;;;15.15;100.00;96521.44;5032006;28;20044;-67
2023/09/16 04:01:17;;;;;;;31.77;18.45;;;;;;;15.27;100.00;96518.25;5035230;28;20103;-67
2023/09/16 04:03:42;;;;;;;29.30;18.40;;;;;;;15.34;100.00;96513.88;5038774;28;20050;-67
2023/09/16 04:06:08;;;;;;;31.42;18.70;;;;;;;15.42;100.00;96516.19;5031294;28;20040;-67
2023/09/16 04:08:34;;;;;;;30.33;18.30;;;;;;;15.42;100.00;96515.41;5032613;28;20056;-66
2023/09/16 04:10:59;;;;;;;28.45;18.25;;;;;;;15.45;100.00;96520.13;5021882;28;20132;-67
2023/09/16 04:13:27;;;;;;;29.80;19.55;;;;;;;15.50;100.00;96511.41;5018999;28;20056;-67
2023/09/16 04:15:54;;;;;;;30.92;18.63;;;;;;;15.53;100.00;96516.13;5021992;28;20049;-67
2023/09/16 04:18:20;;;;;;;35.75;21.30;;;;;;;15.49;100.00;96518.13;5024624;28;20057;-68
2023/09/16 04:20:47;;;;;;;33.83;20.92;;;;;;;15.36;100.00;96517.81;5029039;28;20137;-68
2023/09/16 04:23:13;;;;;;;35.92;21.85;;;;;;;15.33;100.00;96518.59;5019875;28;20111;-67
2023/09/16 04:25:38;;;;;;;34.10;20.83;;;;;;;15.37;100.00;96521.34;5022155;28;20073;-68
2023/09/16 04:28:04;;;;;;;31.27;20.58;;;;;;;15.41;100.00;96525.69;5018145;28;20045;-68
2023/09/16 04:30:30;;;;;;;38.30;20.67;;;;;;;15.38;100.00;96523.72;5029662;28;20112;-67
2023/09/16 04:32:55;;;;;;;30.75;20.98;;;;;;;15.41;100.00;96520.16;5026001;28;20521;-67
2023/09/16 04:35:21;;;;;;;37.15;21.63;;;;;;;15.47;100.00;96518.53;5017644;28;20073;-68
2023/09/16 04:37:46;;;;;;;54.83;30.48;;;;;;;15.43;100.00;96523.28;5039610;28;20393;-68
2023/09/16 04:40:12;;;;;;;58.45;32.95;;;;;;;15.40;100.00;96520.56;5016975;28;20510;-68
2023/09/16 04:42:38;;;;;;;63.50;34.65;;;;;;;15.37;100.00;96518.59;5031140;28;20077;-68
2023/09/16 04:45:07;;;;;;;71.07;35.38;;;;;;;15.32;100.00;96528.06;5018776;28;20667;-68
2023/09/16 04:47:34;;;;;;;74.55;39.28;;;;;;;15.32;100.00;96521.75;5027383;28;20058;-69
2023/09/16 04:49:59;;;;;;;72.72;38.22;;;;;;;15.29;100.00;96517.84;5027127;28;20049;-68
2023/09/16 04:52:27;;;;;;;75.80;38.20;;;;;;;15.21;100.00;96519.84;5022531;28;20109;-68
2023/09/16 04:54:53;;;;;;;74.65;39.15;;;;;;;15.16;100.00;96520.28;5024190;28;20140;-67
2023/09/16 04:57:22;;;;;;;79.00;41.47;;;;;;;15.13;100.00;96523.06;5016372;28;20053;-67
2023/09/16 04:59:47;;;;;;;82.45;41.72;;;;;;;15.09;100.00;96521.09;5020885;28;20050;-67
2023/09/16 05:02:13;;;;;;;78.63;40.28;;;;;;;15.09;100.00;96518.34;5022268;28;20605;-68
2023/09/16 05:04:39;;;;;;;86.20;42.00;;;;;;;15.01;100.00;96513.25;5025041;28;20100;-67
2023/09/16 05:07:04;;;;;;;87.32;41.05;;;;;;;14.93;100.00;96518.00;5019188;28;20064;-68
2023/09/16 05:09:30;;;;;;;85.45;41.15;;;;;;;14.83;100.00;96518.81;5023919;28;20083;-67
2023/09/16 05:11:56;;;;;;;86.20;43.63;;;;;;;14.84;100.00;96518.44;5023012;28;20109;-66
2023/09/16 05:14:24;;;;;;;94.82;44.22;;;;;;;14.76;100.00;96522.38;5018577;28;20271;-67
2023/09/16 05:16:49;;;;;;;85.15;42.72;;;;;;;14.84;100.00;96515.66;5031505;28;20077;-66
2023/09/16 05:19:14;;;;;;;96.25;43.92;;;;;;;14.85;100.00;96519.22;5035660;28;20116;-66
2023/09/16 05:21:40;;;;;;;89.53;42.53;;;;;;;14.75;100.00;96522.78;5021617;28;20041;-68
2023/09/16 05:24:06;;;;;;;95.55;41.70;;;;;;;14.72;100.00;96524.38;5020541;28;20053;-67
2023/09/16 05:26:32;;;;;;;103.60;45.83;;;;;;;14.72;100.00;96522.38;5011608;28;20068;-67
2023/09/16 05:28:57;;;;;;;102.68;44.45;;;;;;;14.75;100.00;96515.31;5019531;28;20065;-69
2023/09/16 05:31:26;;;;;;;126.20;47.30;;;;;;;14.76;100.00;96519.63;5015273;28;20871;-67
2023/09/16 05:33:51;;;;;;;125.50;48.42;;;;;;;14.76;100.00;96527.13;5023131;28;20109;-67
2023/09/16 05:36:17;;;;;;;131.02;49.83;;;;;;;14.67;100.00;96528.31;5024279;28;20544;-67
2023/09/16 05:38:42;;;;;;;130.23;51.22;;;;;;;14.68;100.00;96531.88;5029161;28;20123;-68
2023/09/16 05:41:07;;;;;;;143.18;50.17;;;;;;;14.73;100.00;96528.72;5019880;28;20038;-66
2023/09/16 05:43:33;;;;;;;141.40;51.22;;;;;;;14.75;100.00;96523.56;5023652;28;20570;-66
2023/09/16 05:46:00;;;;;;;119.88;50.15;;;;;;;14.83;100.00;96525.13;5042801;28;20284;-66
2023/09/16 05:48:26;;;;;;;135.82;51.30;;;;;;;14.87;100.00;96527.84;5028416;28;20046;-66
2023/09/16 05:50:58;;;;;;;134.80;51.67;;;;;;;14.87;100.00;96528.66;5026468;28;20136;-67
2023/09/16 05:53:24;;;;;;;121.95;49.08;;;;;;;14.89;100.00;96528.25;5023608;28;20876;-67
2023/09/16 05:55:50;;;;;;;145.20;49.25;;;;;;;14.81;100.00;96532.22;5026535;28;20053;-68
2023/09/16 05:58:15;;;;;;;150.75;54.63;;;;;;;14.77;100.00;96526.72;5021468;28;20553;-67
2023/09/16 06:00:41;;;;;;;177.00;56.45;;;;;;;14.76;100.00;96519.63;5025679;28;20136;-67
2023/09/16 06:03:07;;;;;;;134.73;51.55;;;;;;;14.83;100.00;96521.56;5020906;28;20413;-67
2023/09/16 06:05:33;;;;;;;150.68;53.10;;;;;;;14.80;100.00;96522.38;5024882;28;20041;-69
2023/09/16 06:07:58;;;;;;;127.07;51.40;;;;;;;14.96;100.00;96524.69;5029834;28;20508;-66
2023/09/16 06:10:24;;;;;;;132.50;51.88;;;;;;;14.77;100.00;96531.47;5019918;28;20041;-66
2023/09/16 06:12:49;;;;;;;127.35;51.65;;;;;;;14.78;100.00;96533.78;5024445;28;20193;-65
2023/09/16 06:15:15;;;;;;;115.55;48.47;;;;;;;14.86;100.00;96531.81;5019568;28;20050;-65
2023/09/16 06:17:40;;;;;;;118.55;47.80;;;;;;;14.88;100.00;96532.97;5025747;28;20056;-66
2023/09/16 06:20:06;;;;;;;115.45;48.67;;;;;;;14.81;100.00;96532.22;5014770;28;20044;-65
2023/09/16 06:22:32;;;;;;;139.10;51.15;;;;;;;14.81;100.00;96543.25;5028798;28;20686;-67
2023/09/16 06:24:57;;;;;;;130.27;51.28;;;;;;;14.61;100.00;96526.38;5027431;28;20128;-67
2023/09/16 06:27:23;;;;;;;140.77;54.25;;;;;;;14.60;100.00;96541.31;5024182;28;20134;-67
2023/09/16 06:29:50;;;;;;;129.45;53.35;;;;;;;14.71;100.00;96536.56;5031850;28;20077;-67
2023/09/16 06:32:16;;;;;;;121.28;50.50;;;;;;;14.66;100.00;96537.78;5019930;28;20049;-67
2023/09/16 06:34:41;;;;;;;127.35;51.08;;;;;;;14.70;100.00;96537.75;5024422;28;20068;-67
2023/09/16 06:37:07;;;;;;;120.50;49.70;;;;;;;14.66;100.00;96528.72;5012878;28;20144;-67
2023/09/16 06:39:33;;;;;;;123.43;50.00;;;;;;;14.60;100.00;96531.06;5025675;28;20053;-68
2023/09/16 06:41:58;;;;;;;114.60;46.85;;;;;;;14.60;100.00;96544.09;5024978;28;20107;-68
2023/09/16 06:44:24;;;;;;;121.55;48.20;;;;;;;14.65;100.00;96536.19;5020968;28;20069;-68
2023/09/16 06:46:49;;;;;;;111.45;48.45;;;;;;;14.95;100.00;96537.69;5026289;28;20437;-67
2023/09/16 06:49:17;;;;;;;97.25;44.13;;;;;;;15.09;100.00;96537.63;5019207;28;20107;-65
2023/09/16 06:51:43;;;;;;;96.35;43.92;;;;;;;15.03;100.00;96530.16;5024185;28;20049;-67
2023/09/16 06:54:08;;;;;;;95.18;44.85;;;;;;;14.90;100.00;96540.84;5016284;28;20528;-67
2023/09/16 06:56:33;;;;;;;101.07;44.20;;;;;;;14.89;100.00;96531.00;5043052;28;20045;-67
2023/09/16 06:59:01;;;;;;;89.88;43.42;;;;;;;14.82;100.00;96529.06;5027758;28;20056;-67
2023/09/16 07:01:27;;;;;;;93.55;42.78;;;;;;;14.90;100.00;96533.34;5020353;28;20147;-67
2023/09/16 07:03:52;;;;;;;94.78;44.83;;;;;;;14.88;100.00;96537.72;5032068;28;20084;-67
2023/09/16 07:06:17;;;;;;;106.65;46.50;;;;;;;14.86;100.00;96523.53;5020017;28;20060;-67
2023/09/16 07:08:43;;;;;;;94.85;45.22;;;;;;;14.94;100.00;96521.53;5024544;28;20064;-67
2023/09/16 07:11:11;;;;;;;100.68;46.08;;;;;;;14.78;100.00;96525.53;5019612;28;20124;-67
2023/09/16 07:13:36;;;;;;;104.30;45.50;;;;;;;14.83;100.00;96532.59;5024118;28;20514;-67
2023/09/16 07:16:02;;;;;;;92.82;44.20;;;;;;;14.91;100.00;96536.94;5018793;28;20049;-67
2023/09/16 07:18:27;;;;;;;104.28;43.47;;;;;;;14.84;100.00;96536.94;5024086;28;20052;-67
2023/09/16 07:20:53;;;;;;;95.80;45.10;;;;;;;14.91;100.00;96531.41;5041244;28;20054;-68
2023/09/16 07:23:18;;;;;;;92.28;45.08;;;;;;;14.99;100.00;96535.69;5046488;28;20121;-68
2023/09/16 07:25:56;;;;;;;90.85;44.17;;;;;;;15.01;100.00;96533.31;5038984;28;20099;-67
2023/09/16 07:28:23;;;;;;;83.68;43.72;;;;;;;15.00;100.00;96540.03;5020817;28;20480;-67
2023/09/16 07:30:48;;;;;;;86.38;41.67;;;;;;;15.00;100.00;96525.44;5024688;28;20392;-68
2023/09/16 07:33:14;;;;;;;88.95;42.72;;;;;;;15.17;100.00;96521.84;5018697;28;20187;-67
2023/09/16 07:35:39;;;;;;;82.07;42.10;;;;;;;15.16;100.00;96527.75;5033637;28;20090;-68
2023/09/16 07:38:04;;;;;;;73.47;40.25;;;;;;;15.31;100.00;96532.03;5028882;28;20059;-68
2023/09/16 07:40:32;;;;;;;73.13;38.60;;;;;;;15.39;100.00;96536.31;5023959;28;20050;-68
2023/09/16 07:42:58;;;;;;;67.10;38.10;;;;;;;15.39;100.00;96539.06;5024937;28;20049;-68
2023/09/16 07:45:24;;;;;;;62.55;35.33;;;;;;;15.57;100.00;96527.94;5020045;28;20281;-67
2023/09/16 07:47:49;;;;;;;57.15;33.13;;;;;;;15.65;100.00;96534.22;5026545;28;20053;-68
2023/09/16 07:50:15;;;;;;;57.78;34.22;;;;;;;15.71;100.00;96531.81;5022325;28;20099;-67
2023/09/16 07:52:40;;;;;;;51.45;31.48;;;;;;;15.81;100.00;96537.28;5034708;28;20052;-67
2023/09/16 07:55:07;;;;;;;46.58;30.77;;;;;;;16.08;100.00;96538.66;5029478;28;20140;-67
2023/09/16 07:57:33;;;;;;;48.40;30.08;;;;;;;16.21;100.00;96540.53;5020248;28;20049;-67
2023/09/16 07:59:58;;;;;;;43.42;27.75;;;;;;;16.09;100.00;96535.50;5039990;28;20083;-67
2023/09/16 08:02:24;;;;;;;40.38;26.63;;;;;;;16.51;100.00;96535.50;5023160;28;20510;-66
2023/09/16 08:04:49;;;;;;;42.00;27.23;;;;;;;16.59;100.00;96535.03;5025734;28;20515;-67
2023/09/16 08:07:15;;;;;;;37.70;24.95;;;;;;;17.32;100.00;96546.91;5012030;28;20499;-66
2023/09/16 08:09:40;;;;;;;32.85;22.77;;;;;;;17.67;100.00;96539.31;5027753;28;20045;-66
2023/09/16 08:12:06;;;;;;;30.70;22.02;;;;;;;17.66;100.00;96545.25;5019169;28;20041;-66
2023/09/16 08:14:31;;;;;;;31.50;21.58;;;;;;;19.15;100.00;96543.19;5023495;28;20042;-66
2023/09/16 08:16:58;;;;;;;27.98;18.73;;;;;;;19.52;100.00;96546.81;5024003;28;20147;-66
2023/09/16 08:19:23;;;;;;;26.38;18.58;;;;;;;19.55;100.00;96539.59;5023100;28;20154;-67
2023/09/16 08:21:49;;;;;;;25.52;17.25;;;;;;;19.76;100.00;96543.94;5026683;28;20579;-66
2023/09/16 08:24:15;;;;;;;22.85;16.85;;;;;;;21.57;100.00;96541.66;5018277;28;20048;-66
2023/09/16 08:26:40;;;;;;;23.98;15.73;;;;;;;21.96;100.00;96546.03;5022651;28;20045;-66
2023/09/16 08:29:05;;;;;;;24.65;18.02;;;;;;;20.80;100.00;96536.63;5015677;28;20171;-67
2023/09/16 08:31:31;;;;;;;21.38;16.73;;;;;;;20.59;100.00;96537.94;5032604;28;20373;-67
2023/09/16 08:34:00;;;;;;;20.92;15.52;;;;;;;21.68;100.00;96536.56;5023608;28;20052;-67
2023/09/16 08:36:26;;;;;;;21.98;15.32;;;;;;;21.44;100.00;96540.84;5017348;28;20088;-67
2023/09/16 08:38:51;;;;;;;16.60;12.63;;;;;;;22.37;100.00;96548.41;5021645;28;20072;-67
2023/09/16 08:41:52;;;;;;;20.83;15.80;;;;;;;21.68;100.00;96549.69;5017442;28;20046;-66
2023/09/16 08:44:20;;;;;;;17.00;13.27;;;;;;;22.17;100.00;96546.59;4996645;28;20076;-68
2023/09/16 08:46:48;;;;;;;21.60;13.77;;;;;;;20.78;100.00;96538.31;5021366;28;20412;-68
2023/09/16 08:49:16;;;;;;;18.52;12.68;;;;;;;22.45;100.00;96563.66;5016097;28;20182;-68
2023/09/16 08:51:45;;;;;;;19.27;14.47;;;;;;;22.40;100.00;96553.06;5021327;28;20045;-68
2023/09/16 08:54:12;;;;;;;16.38;12.30;;;;;;;24.17;88.76;96560.28;5021342;28;20468;-66
2023/09/16 08:56:39;;;;;;;14.48;10.50;;;;;;;25.52;79.22;96571.81;5026007;28;20045;-68
2023/09/16 08:59:05;;;;;;;15.38;11.90;;;;;;;23.04;91.19;96569.66;5019271;28;20111;-68
2023/09/16 09:01:30;;;;;;;15.00;11.05;;;;;;;22.62;97.88;96572.69;5037188;28;20065;-67
2023/09/16 09:03:57;;;;;;;13.35;11.23;;;;;;;24.44;85.15;96575.59;5025847;28;20571;-67
2023/09/16 09:06:25;;;;;;;16.30;10.77;;;;;;;24.91;80.15;96570.88;5018591;28;21000;-68
2023/09/16 09:08:50;;;;;;;14.98;11.18;;;;;;;25.68;72.41;96572.75;5019930;28;20049;-68
2023/09/16 09:11:18;;;;;;;14.07;10.73;;;;;;;26.24;68.06;96582.53;5015541;28;20048;-67
2023/09/16 09:13:48;;;;;;;13.25;11.02;;;;;;;26.01;69.04;96577.66;5020738;28;20121;-68
2023/09/16 09:16:18;;;;;;;13.82;10.32;;;;;;;24.34;76.89;96566.38;5013755;28;20416;-67
2023/09/16 09:18:46;;;;;;;14.75;10.85;;;;;;;23.43;86.25;96557.09;5021319;28;20073;-67
2023/09/16 09:21:12;;;;;;;13.85;9.95;;;;;;;25.34;78.23;96555.03;5018990;28;20048;-67
2023/09/16 09:23:37;;;;;;;15.48;11.02;;;;;;;26.54;68.48;96559.47;5023494;28;20045;-68
2023/09/16 09:26:04;;;;;;;14.52;9.85;;;;;;;24.34;81.60;96548.81;5024118;28;20121;-68
2023/09/16 09:28:32;;;;;;;14.70;9.50;;;;;;;26.11;73.90;96551.88;5029976;28;20080;-67
2023/09/16 09:30:58;;;;;;;11.18;8.05;;;;;;;27.63;63.99;96559.88;5025226;28;20067;-68
2023/09/16 09:33:26;;;;;;;9.02;7.60;;;;;;;29.52;55.17;96571.28;5031850;28;20045;-68
2023/09/16 09:36:09;;;;;;;9.52;7.90;;;;;;;30.17;50.43;96576.50;5027372;28;20045;-67
2023/09/16 09:38:38;;;;;;;13.55;8.52;;;;;;;27.18;60.51;96575.13;5026609;28;20041;-67
2023/09/16 09:41:03;;;;;;;10.50;8.88;;;;;;;25.19;70.32;96563.25;5036323;28;20051;-69
2023/09/16 09:43:29;;;;;;;12.73;8.75;;;;;;;25.78;70.85;96556.66;5030671;28;20033;-67
2023/09/16 09:45:55;;;;;;;9.55;7.97;;;;;;;25.70;72.66;96545.75;5023914;28;20416;-67
2023/09/16 09:48:20;;;;;;;8.43;6.50;;;;;;;27.54;64.39;96559.22;5018328;28;20048;-67
2023/09/16 09:50:46;;;;;;;9.90;6.32;;;;;;;29.62;55.67;96560.59;5024063;28;20485;-66
2023/09/16 09:53:11;;;;;;;7.32;5.57;;;;;;;30.94;48.41;96570.34;5019874;28;20037;-66
2023/09/16 09:55:39;;;;;;;7.15;5.68;;;;;;;32.29;44.16;96579.13;5024418;28;20065;-68
2023/09/16 09:58:05;;;;;;;6.22;5.40;;;;;;;31.25;45.36;96572.25;5019256;28;20110;-64
2023/09/16 10:00:30;;;;;;;9.15;5.25;;;;;;;30.24;47.00;96563.97;5023516;28;20053;-70
2023/09/16 10:02:59;;;;;;;5.95;4.85;;;;;;;27.85;54.15;96556.66;5023540;28;20053;-69
2023/09/16 10:05:24;;;;;;;7.43;5.20;;;;;;;25.58;63.04;96532.69;5018185;28;20072;-71
2023/09/16 10:07:52;;;;;;;6.90;5.35;;;;;;;25.06;65.64;96529.78;5025514;28;20049;-69
2023/09/16 10:10:24;;;;;;;7.85;4.45;;;;;;;24.95;70.96;96529.47;5021903;28;20097;-70
2023/09/16 10:12:55;;;;;;;5.78;4.40;;;;;;;26.24;63.65;96529.22;5023890;28;20068;-69
2023/09/16 10:15:24;;;;;;;11.75;7.00;;;;;;;28.63;58.51;96532.28;5020894;28;20092;-70
2023/09/16 10:17:50;;;;;;;11.90;7.65;;;;;;;29.18;54.90;96534.25;5026788;28;20049;-68
2023/09/16 10:20:16;;;;;;;16.67;12.15;;;;;;;29.74;55.91;96536.84;5020290;28;20727;-70
2023/09/16 10:22:43;;;;;;;13.50;11.32;;;;;;;29.06;57.90;96527.66;5024771;28;20110;-70
2023/09/16 10:25:11;;;;;;;12.90;9.32;;;;;;;28.46;61.56;96532.03;5018108;28;20048;-68
2023/09/16 10:27:48;;;;;;;11.85;7.57;;;;;;;29.84;55.19;96531.84;5023325;28;20049;-69
2023/09/16 10:30:15;;;;;;;9.52;7.78;;;;;;;30.61;51.86;96534.94;5018532;28;20050;-69
2023/09/16 10:32:41;;;;;;;8.02;6.57;;;;;;;30.90;51.45;96525.31;5030635;28;20052;-69
2023/09/16 10:35:08;;;;;;;8.90;7.47;;;;;;;30.55;51.00;96526.44;5018188;28;20041;-66
2023/09/16 10:37:36;;;;;;;11.82;7.45;;;;;;;30.35;52.77;96518.09;5022058;28;20072;-70
2023/09/16 10:40:04;;;;;;;10.10;8.48;;;;;;;31.11;51.01;96522.31;5023043;28;20103;-68
2023/09/16 10:42:33;;;;;;;7.40;6.43;;;;;;;30.99;51.42;96525.13;5022882;28;20559;-68
2023/09/16 10:45:01;;;;;;;;;;;;;;;30.20;53.57;96515.41;5021272;28;20050;-67
2023/09/16 10:47:27;;;;;;;8.77;7.60;;;;;;;30.03;55.01;96518.88;5018960;28;19946;-68
2023/09/16 10:49:53;;;;;;;11.02;8.55;;;;;;;29.83;56.69;96516.16;5021731;28;20056;-68
2023/09/16 10:52:24;;;;;;;11.90;8.02;;;;;;;29.14;57.90;96511.13;5017749;28;20042;-68
2023/09/16 10:55:00;;;;;;;12.27;9.00;;;;;;;28.75;60.97;96506.56;5025550;28;20087;-68
2023/09/16 10:57:33;;;;;;;12.27;7.07;;;;;;;29.43;59.83;96500.91;5011960;28;20197;-67
2023/09/16 11:00:03;;;;;;;9.15;7.63;;;;;;;29.45;57.74;96492.72;5022939;28;20052;-68
2023/09/16 11:02:45;;;;;;;11.27;7.63;;;;;;;29.67;57.34;96489.31;5019556;28;20493;-68
2023/09/16 11:05:11;;;;;;;8.85;7.57;;;;;;;28.72;61.63;96487.84;5017990;28;20072;-67
2023/09/16 11:07:37;;;;;;;9.90;7.57;;;;;;;29.03;58.27;96488.41;5023189;28;20434;-67
2023/09/16 11:10:04;;;;;;;5.63;5.03;;;;;;;28.38;56.55;96481.75;5019662;28;20493;-66